Terminal Aerodrome Forecast
Issued by NWS

Home | Current Version | Previous Version | Text Only | Print | Product List | Glossary On
Versions: 1 2 3 4 5 6 7 8 9 10 11 12 13 14
000
FTUS43 KICT 242320
TAFCNU
TAF
KCNU 242320Z 2500/2524 31006KT P6SM FEW250
     FM251600 27006KT P6SM SCT250
     FM252000 22010KT P6SM SCT150=

USA.gov is the U.S. government's official web portal to all federal, state and local government web resources and services.